sensor_id;sensor_type;location;lat;lon;timestamp;P1;durP1;ratioP1;P2;durP2;ratioP2
35290;SDS011;21411;50.024;19.220;2022-08-20T04:36:09;28.10;;;25.50;;
35290;SDS011;21411;50.024;19.220;2022-08-20T04:38:37;24.40;;;22.20;;
35290;SDS011;21411;50.024;19.220;2022-08-20T04:41:03;24.40;;;22.00;;
35290;SDS011;21411;50.024;19.220;2022-08-20T04:43:31;23.50;;;21.30;;
35290;SDS011;21411;50.024;19.220;2022-08-20T04:46:07;23.80;;;21.80;;
35290;SDS011;21411;50.024;19.220;2022-08-20T04:48:37;22.30;;;20.20;;
35290;SDS011;21411;50.024;19.220;2022-08-20T04:51:06;21.70;;;19.50;;
35290;SDS011;21411;50.024;19.220;2022-08-20T04:53:33;21.00;;;18.80;;
35290;SDS011;21411;50.024;19.220;2022-08-20T04:56:00;20.80;;;18.90;;
35290;SDS011;21411;50.024;19.220;2022-08-20T04:58:32;21.00;;;19.10;;
35290;SDS011;21411;50.024;19.220;2022-08-20T05:01:03;20.40;;;18.60;;
35290;SDS011;21411;50.024;19.220;2022-08-20T05:03:32;21.40;;;19.20;;
35290;SDS011;21411;50.024;19.220;2022-08-20T05:05:59;22.30;;;20.10;;
35290;SDS011;21411;50.024;19.220;2022-08-20T05:08:26;18.40;;;16.70;;
35290;SDS011;21411;50.024;19.220;2022-08-20T05:10:54;20.50;;;18.00;;
35290;SDS011;21411;50.024;19.220;2022-08-20T05:13:23;20.30;;;18.10;;
35290;SDS011;21411;50.024;19.220;2022-08-20T05:15:51;20.20;;;18.30;;
35290;SDS011;21411;50.024;19.220;2022-08-20T05:18:19;21.20;;;19.20;;
35290;SDS011;21411;50.024;19.220;2022-08-20T05:20:48;19.70;;;17.80;;
35290;SDS011;21411;50.024;19.220;2022-08-20T05:23:16;19.30;;;17.40;;
35290;SDS011;21411;50.024;19.220;2022-08-20T05:25:45;21.90;;;19.30;;
35290;SDS011;21411;50.024;19.220;2022-08-20T05:28:19;19.00;;;17.40;;
35290;SDS011;21411;50.024;19.220;2022-08-20T05:30:48;22.50;;;18.70;;
35290;SDS011;21411;50.024;19.220;2022-08-20T05:33:16;20.00;;;18.00;;
35290;SDS011;21411;50.024;19.220;2022-08-20T05:35:45;18.50;;;16.60;;
35290;SDS011;21411;50.024;19.220;2022-08-20T05:38:15;19.20;;;17.40;;
35290;SDS011;21411;50.024;19.220;2022-08-20T05:40:44;18.60;;;15.50;;
35290;SDS011;21411;50.024;19.220;2022-08-20T05:43:11;17.80;;;16.00;;
35290;SDS011;21411;50.024;19.220;2022-08-20T05:45:38;18.10;;;16.30;;
35290;SDS011;21411;50.024;19.220;2022-08-20T05:48:07;16.40;;;15.00;;
35290;SDS011;21411;50.024;19.220;2022-08-20T05:50:41;16.20;;;14.60;;
35290;SDS011;21411;50.024;19.220;2022-08-20T05:53:08;15.90;;;14.20;;
35290;SDS011;21411;50.024;19.220;2022-08-20T05:55:35;17.00;;;15.40;;
35290;SDS011;21411;50.024;19.220;2022-08-20T05:58:05;16.20;;;14.60;;
35290;SDS011;21411;50.024;19.220;2022-08-20T06:00:34;16.60;;;15.00;;
35290;SDS011;21411;50.024;19.220;2022-08-20T06:03:01;16.60;;;14.70;;
35290;SDS011;21411;50.024;19.220;2022-08-20T06:05:46;15.60;;;14.00;;
35290;SDS011;21411;50.024;19.220;2022-08-20T06:08:13;18.00;;;16.00;;
35290;SDS011;21411;50.024;19.220;2022-08-20T06:10:39;18.20;;;16.50;;
35290;SDS011;21411;50.024;19.220;2022-08-20T06:13:06;21.70;;;19.40;;
35290;SDS011;21411;50.024;19.220;2022-08-20T06:15:33;21.50;;;18.80;;
35290;SDS011;21411;50.024;19.220;2022-08-20T06:18:00;18.50;;;16.70;;
35290;SDS011;21411;50.024;19.220;2022-08-20T06:20:27;19.40;;;17.60;;
35290;SDS011;21411;50.024;19.220;2022-08-20T06:22:55;20.00;;;17.60;;
35290;SDS011;21411;50.024;19.220;2022-08-20T06:25:21;20.20;;;16.70;;
35290;SDS011;21411;50.024;19.220;2022-08-20T06:27:48;18.20;;;16.10;;
35290;SDS011;21411;50.024;19.220;2022-08-20T06:30:14;16.90;;;15.10;;
35290;SDS011;21411;50.024;19.220;2022-08-20T06:32:42;18.00;;;15.60;;
35290;SDS011;21411;50.024;19.220;2022-08-20T06:35:11;17.80;;;16.10;;
35290;SDS011;21411;50.024;19.220;2022-08-20T06:37:39;17.50;;;15.70;;
35290;SDS011;21411;50.024;19.220;2022-08-20T06:40:08;17.40;;;15.80;;
35290;SDS011;21411;50.024;19.220;2022-08-20T06:42:39;16.40;;;14.90;;
35290;SDS011;21411;50.024;19.220;2022-08-20T06:45:10;16.40;;;14.20;;
35290;SDS011;21411;50.024;19.220;2022-08-20T06:47:39;18.10;;;15.80;;
35290;SDS011;21411;50.024;19.220;2022-08-20T06:50:09;17.10;;;15.40;;
35290;SDS011;21411;50.024;19.220;2022-08-20T06:52:39;15.60;;;14.00;;
35290;SDS011;21411;50.024;19.220;2022-08-20T06:55:07;16.60;;;15.00;;
35290;SDS011;21411;50.024;19.220;2022-08-20T06:57:36;16.00;;;14.50;;
35290;SDS011;21411;50.024;19.220;2022-08-20T07:00:04;16.10;;;14.50;;
35290;SDS011;21411;50.024;19.220;2022-08-20T07:02:42;15.60;;;14.00;;
35290;SDS011;21411;50.024;19.220;2022-08-20T07:05:09;16.70;;;15.10;;
35290;SDS011;21411;50.024;19.220;2022-08-20T07:07:36;16.10;;;14.40;;
35290;SDS011;21411;50.024;19.220;2022-08-20T07:10:04;17.10;;;15.30;;
35290;SDS011;21411;50.024;19.220;2022-08-20T07:12:32;16.50;;;14.80;;
35290;SDS011;21411;50.024;19.220;2022-08-20T07:15:05;19.30;;;15.80;;
35290;SDS011;21411;50.024;19.220;2022-08-20T07:17:34;17.80;;;15.40;;
35290;SDS011;21411;50.024;19.220;2022-08-20T07:20:08;16.50;;;14.90;;
35290;SDS011;21411;50.024;19.220;2022-08-20T07:22:37;16.30;;;14.50;;
35290;SDS011;21411;50.024;19.220;2022-08-20T07:25:05;15.50;;;12.90;;
35290;SDS011;21411;50.024;19.220;2022-08-20T07:27:35;16.20;;;14.10;;
35290;SDS011;21411;50.024;19.220;2022-08-20T07:30:02;16.40;;;12.90;;
35290;SDS011;21411;50.024;19.220;2022-08-20T07:32:52;16.10;;;13.60;;
35290;SDS011;21411;50.024;19.220;2022-08-20T07:35:19;15.20;;;13.10;;
35290;SDS011;21411;50.024;19.220;2022-08-20T07:37:48;18.50;;;13.60;;
35290;SDS011;21411;50.024;19.220;2022-08-20T07:40:18;16.90;;;14.10;;
35290;SDS011;21411;50.024;19.220;2022-08-20T07:42:48;14.00;;;11.90;;
35290;SDS011;21411;50.024;19.220;2022-08-20T07:45:16;16.10;;;12.10;;
35290;SDS011;21411;50.024;19.220;2022-08-20T07:47:44;13.50;;;12.10;;
35290;SDS011;21411;50.024;19.220;2022-08-20T07:50:13;13.30;;;11.90;;
35290;SDS011;21411;50.024;19.220;2022-08-20T07:52:42;14.50;;;11.90;;
35290;SDS011;21411;50.024;19.220;2022-08-20T07:55:09;13.60;;;12.20;;
35290;SDS011;21411;50.024;19.220;2022-08-20T07:57:37;14.80;;;11.90;;
35290;SDS011;21411;50.024;19.220;2022-08-20T08:00:04;15.40;;;12.30;;
35290;SDS011;21411;50.024;19.220;2022-08-20T08:02:33;14.30;;;11.10;;
35290;SDS011;21411;50.024;19.220;2022-08-20T08:05:03;13.90;;;12.30;;
35290;SDS011;21411;50.024;19.220;2022-08-20T08:07:31;12.50;;;11.30;;
35290;SDS011;21411;50.024;19.220;2022-08-20T08:09:59;14.00;;;12.50;;
35290;SDS011;21411;50.024;19.220;2022-08-20T08:12:32;13.50;;;11.80;;
35290;SDS011;21411;50.024;19.220;2022-08-20T08:15:03;15.20;;;12.30;;
35290;SDS011;21411;50.024;19.220;2022-08-20T08:17:32;16.70;;;13.90;;
35290;SDS011;21411;50.024;19.220;2022-08-20T08:19:59;14.30;;;11.80;;
35290;SDS011;21411;50.024;19.220;2022-08-20T08:22:26;14.00;;;12.50;;
35290;SDS011;21411;50.024;19.220;2022-08-20T08:24:58;21.60;;;13.70;;
35290;SDS011;21411;50.024;19.220;2022-08-20T08:27:28;19.20;;;13.90;;
35290;SDS011;21411;50.024;19.220;2022-08-20T08:29:58;17.30;;;13.80;;
35290;SDS011;21411;50.024;19.220;2022-08-20T08:32:28;22.10;;;16.40;;
35290;SDS011;21411;50.024;19.220;2022-08-20T08:35:01;17.30;;;14.70;;
35290;SDS011;21411;50.024;19.220;2022-08-20T08:37:29;18.40;;;14.10;;
35290;SDS011;21411;50.024;19.220;2022-08-20T08:39:56;18.20;;;14.10;;
35290;SDS011;21411;50.024;19.220;2022-08-20T08:42:42;17.00;;;15.40;;
35290;SDS011;21411;50.024;19.220;2022-08-20T08:45:13;18.40;;;16.50;;
35290;SDS011;21411;50.024;19.220;2022-08-20T08:47:42;17.80;;;16.10;;
35290;SDS011;21411;50.024;19.220;2022-08-20T08:50:15;18.90;;;17.00;;
35290;SDS011;21411;50.024;19.220;2022-08-20T08:52:48;21.40;;;19.40;;
35290;SDS011;21411;50.024;19.220;2022-08-20T08:55:18;20.30;;;18.30;;
35290;SDS011;21411;50.024;19.220;2022-08-20T08:57:47;19.30;;;17.20;;
35290;SDS011;21411;50.024;19.220;2022-08-20T09:00:16;21.20;;;18.90;;
35290;SDS011;21411;50.024;19.220;2022-08-20T09:05:46;21.70;;;19.50;;
35290;SDS011;21411;50.024;19.220;2022-08-20T09:08:15;20.80;;;18.90;;
35290;SDS011;21411;50.024;19.220;2022-08-20T09:10:45;21.10;;;19.10;;
35290;SDS011;21411;50.024;19.220;2022-08-20T09:13:11;20.80;;;18.60;;
35290;SDS011;21411;50.024;19.220;2022-08-20T09:15:38;18.70;;;16.80;;
35290;SDS011;21411;50.024;19.220;2022-08-20T09:18:04;18.70;;;16.70;;
35290;SDS011;21411;50.024;19.220;2022-08-20T09:20:31;16.00;;;14.10;;
35290;SDS011;21411;50.024;19.220;2022-08-20T09:22:58;19.40;;;15.80;;
35290;SDS011;21411;50.024;19.220;2022-08-20T09:25:24;16.40;;;14.60;;
35290;SDS011;21411;50.024;19.220;2022-08-20T09:27:51;21.60;;;16.20;;
35290;SDS011;21411;50.024;19.220;2022-08-20T09:30:18;20.40;;;18.50;;
35290;SDS011;21411;50.024;19.220;2022-08-20T09:32:45;18.90;;;15.40;;
35290;SDS011;21411;50.024;19.220;2022-08-20T09:35:11;17.80;;;15.80;;
35290;SDS011;21411;50.024;19.220;2022-08-20T09:37:39;21.10;;;15.90;;
35290;SDS011;21411;50.024;19.220;2022-08-20T09:40:06;17.90;;;13.30;;
35290;SDS011;21411;50.024;19.220;2022-08-20T09:42:35;16.90;;;13.10;;
35290;SDS011;21411;50.024;19.220;2022-08-20T09:45:03;14.40;;;11.80;;
35290;SDS011;21411;50.024;19.220;2022-08-20T09:47:56;14.40;;;12.90;;
35290;SDS011;21411;50.024;19.220;2022-08-20T09:50:28;18.90;;;14.10;;
35290;SDS011;21411;50.024;19.220;2022-08-20T09:52:56;17.30;;;15.60;;
35290;SDS011;21411;50.024;19.220;2022-08-20T09:58:06;17.40;;;15.60;;
35290;SDS011;21411;50.024;19.220;2022-08-20T10:00:43;18.10;;;16.20;;
35290;SDS011;21411;50.024;19.220;2022-08-20T10:03:10;17.70;;;15.80;;
35290;SDS011;21411;50.024;19.220;2022-08-20T10:05:37;17.60;;;15.50;;
35290;SDS011;21411;50.024;19.220;2022-08-20T10:08:04;20.20;;;16.20;;
35290;SDS011;21411;50.024;19.220;2022-08-20T10:10:32;19.20;;;16.70;;
35290;SDS011;21411;50.024;19.220;2022-08-20T10:12:59;18.60;;;16.00;;
35290;SDS011;21411;50.024;19.220;2022-08-20T10:15:26;19.50;;;15.80;;
35290;SDS011;21411;50.024;19.220;2022-08-20T10:17:52;17.10;;;14.80;;
35290;SDS011;21411;50.024;19.220;2022-08-20T10:20:19;14.80;;;13.30;;
35290;SDS011;21411;50.024;19.220;2022-08-20T10:22:45;18.20;;;14.70;;
35290;SDS011;21411;50.024;19.220;2022-08-20T10:25:12;16.00;;;14.30;;
35290;SDS011;21411;50.024;19.220;2022-08-20T10:27:39;14.20;;;12.80;;
35290;SDS011;21411;50.024;19.220;2022-08-20T10:30:05;13.00;;;10.70;;
35290;SDS011;21411;50.024;19.220;2022-08-20T10:32:33;13.30;;;11.40;;
35290;SDS011;21411;50.024;19.220;2022-08-20T10:34:59;12.80;;;10.70;;
35290;SDS011;21411;50.024;19.220;2022-08-20T10:37:26;14.30;;;10.90;;
35290;SDS011;21411;50.024;19.220;2022-08-20T10:39:53;13.20;;;11.20;;
35290;SDS011;21411;50.024;19.220;2022-08-20T10:42:20;18.30;;;11.40;;
35290;SDS011;21411;50.024;19.220;2022-08-20T10:44:47;13.20;;;9.70;;
35290;SDS011;21411;50.024;19.220;2022-08-20T10:49:40;10.30;;;8.30;;
35290;SDS011;21411;50.024;19.220;2022-08-20T10:52:07;11.60;;;8.40;;
35290;SDS011;21411;50.024;19.220;2022-08-20T10:54:33;13.20;;;9.10;;
35290;SDS011;21411;50.024;19.220;2022-08-20T10:57:00;13.50;;;9.20;;
35290;SDS011;21411;50.024;19.220;2022-08-20T10:59:29;12.50;;;9.40;;
35290;SDS011;21411;50.024;19.220;2022-08-20T11:01:55;15.60;;;8.80;;
35290;SDS011;21411;50.024;19.220;2022-08-20T11:04:22;11.10;;;8.70;;
35290;SDS011;21411;50.024;19.220;2022-08-20T11:06:49;12.30;;;8.30;;
35290;SDS011;21411;50.024;19.220;2022-08-20T11:09:15;11.10;;;8.80;;
35290;SDS011;21411;50.024;19.220;2022-08-20T11:11:42;11.70;;;8.20;;
35290;SDS011;21411;50.024;19.220;2022-08-20T11:14:08;12.40;;;8.00;;
35290;SDS011;21411;50.024;19.220;2022-08-20T11:16:35;13.10;;;8.80;;
35290;SDS011;21411;50.024;19.220;2022-08-20T11:19:01;11.10;;;8.60;;
35290;SDS011;21411;50.024;19.220;2022-08-20T11:21:28;12.70;;;10.70;;
35290;SDS011;21411;50.024;19.220;2022-08-20T11:23:54;16.70;;;11.70;;
35290;SDS011;21411;50.024;19.220;2022-08-20T11:26:21;13.30;;;11.20;;
35290;SDS011;21411;50.024;19.220;2022-08-20T11:28:50;15.50;;;12.20;;
35290;SDS011;21411;50.024;19.220;2022-08-20T11:31:16;19.30;;;14.40;;
35290;SDS011;21411;50.024;19.220;2022-08-20T11:33:43;17.60;;;14.30;;
35290;SDS011;21411;50.024;19.220;2022-08-20T11:36:10;17.10;;;15.00;;
35290;SDS011;21411;50.024;19.220;2022-08-20T11:38:37;17.20;;;15.30;;
35290;SDS011;21411;50.024;19.220;2022-08-20T11:41:03;18.70;;;15.40;;
35290;SDS011;21411;50.024;19.220;2022-08-20T11:43:30;17.30;;;14.00;;
35290;SDS011;21411;50.024;19.220;2022-08-20T11:45:56;17.70;;;15.90;;
35290;SDS011;21411;50.024;19.220;2022-08-20T11:48:23;17.80;;;15.90;;
35290;SDS011;21411;50.024;19.220;2022-08-20T11:50:49;20.30;;;18.20;;
35290;SDS011;21411;50.024;19.220;2022-08-20T11:53:16;22.60;;;19.90;;
35290;SDS011;21411;50.024;19.220;2022-08-20T11:55:43;21.50;;;19.20;;
35290;SDS011;21411;50.024;19.220;2022-08-20T11:58:10;20.10;;;18.10;;
35290;SDS011;21411;50.024;19.220;2022-08-20T12:00:37;21.60;;;19.40;;
35290;SDS011;21411;50.024;19.220;2022-08-20T12:03:04;24.30;;;21.80;;
35290;SDS011;21411;50.024;19.220;2022-08-20T12:05:32;23.70;;;21.10;;
35290;SDS011;21411;50.024;19.220;2022-08-20T12:07:59;24.20;;;21.80;;
35290;SDS011;21411;50.024;19.220;2022-08-20T12:10:27;26.80;;;23.00;;
35290;SDS011;21411;50.024;19.220;2022-08-20T12:12:54;25.90;;;20.80;;
35290;SDS011;21411;50.024;19.220;2022-08-20T12:15:21;20.50;;;18.50;;
35290;SDS011;21411;50.024;19.220;2022-08-20T12:17:47;19.60;;;17.80;;
35290;SDS011;21411;50.024;19.220;2022-08-20T12:20:14;20.00;;;17.80;;
35290;SDS011;21411;50.024;19.220;2022-08-20T12:22:41;18.40;;;16.50;;
35290;SDS011;21411;50.024;19.220;2022-08-20T12:25:09;19.50;;;16.50;;
35290;SDS011;21411;50.024;19.220;2022-08-20T12:27:36;17.40;;;15.50;;
35290;SDS011;21411;50.024;19.220;2022-08-20T12:30:06;17.50;;;15.10;;
35290;SDS011;21411;50.024;19.220;2022-08-20T12:32:37;27.40;;;17.90;;
35290;SDS011;21411;50.024;19.220;2022-08-20T12:35:05;17.40;;;14.10;;
35290;SDS011;21411;50.024;19.220;2022-08-20T12:38:03;15.10;;;13.50;;
35290;SDS011;21411;50.024;19.220;2022-08-20T12:40:30;15.50;;;13.90;;
35290;SDS011;21411;50.024;19.220;2022-08-20T12:42:57;13.70;;;12.30;;
35290;SDS011;21411;50.024;19.220;2022-08-20T12:45:23;14.90;;;13.30;;
35290;SDS011;21411;50.024;19.220;2022-08-20T12:47:50;14.40;;;13.00;;
35290;SDS011;21411;50.024;19.220;2022-08-20T12:50:18;15.50;;;14.10;;
35290;SDS011;21411;50.024;19.220;2022-08-20T12:52:47;15.60;;;14.10;;
35290;SDS011;21411;50.024;19.220;2022-08-20T12:55:16;15.70;;;14.20;;
35290;SDS011;21411;50.024;19.220;2022-08-20T12:57:52;16.10;;;14.70;;
35290;SDS011;21411;50.024;19.220;2022-08-20T13:00:23;16.70;;;13.00;;
35290;SDS011;21411;50.024;19.220;2022-08-20T13:02:52;16.80;;;14.10;;
35290;SDS011;21411;50.024;19.220;2022-08-20T13:05:21;16.00;;;14.10;;
35290;SDS011;21411;50.024;19.220;2022-08-20T13:07:47;15.50;;;13.20;;
35290;SDS011;21411;50.024;19.220;2022-08-20T13:10:15;15.40;;;13.80;;
35290;SDS011;21411;50.024;19.220;2022-08-20T13:12:46;16.60;;;15.00;;
35290;SDS011;21411;50.024;19.220;2022-08-20T13:15:13;18.00;;;15.90;;
35290;SDS011;21411;50.024;19.220;2022-08-20T13:17:39;19.50;;;17.50;;
35290;SDS011;21411;50.024;19.220;2022-08-20T13:20:08;22.10;;;17.50;;
35290;SDS011;21411;50.024;19.220;2022-08-20T13:22:37;20.60;;;17.60;;
35290;SDS011;21411;50.024;19.220;2022-08-20T13:25:05;20.10;;;17.30;;
35290;SDS011;21411;50.024;19.220;2022-08-20T13:27:32;14.40;;;11.20;;
35290;SDS011;21411;50.024;19.220;2022-08-20T13:30:04;11.60;;;10.30;;
35290;SDS011;21411;50.024;19.220;2022-08-20T13:32:33;12.70;;;9.80;;
35290;SDS011;21411;50.024;19.220;2022-08-20T13:35:00;10.30;;;8.00;;
35290;SDS011;21411;50.024;19.220;2022-08-20T13:37:27;11.90;;;7.50;;
35290;SDS011;21411;50.024;19.220;2022-08-20T13:39:55;10.00;;;8.40;;
35290;SDS011;21411;50.024;19.220;2022-08-20T13:42:23;10.60;;;8.80;;
35290;SDS011;21411;50.024;19.220;2022-08-20T13:44:51;11.10;;;8.30;;
35290;SDS011;21411;50.024;19.220;2022-08-20T13:47:26;9.30;;;7.60;;
35290;SDS011;21411;50.024;19.220;2022-08-20T13:49:59;9.10;;;8.10;;
35290;SDS011;21411;50.024;19.220;2022-08-20T13:52:33;10.10;;;7.80;;
35290;SDS011;21411;50.024;19.220;2022-08-20T13:54:59;9.90;;;7.90;;
35290;SDS011;21411;50.024;19.220;2022-08-20T13:57:26;11.20;;;8.10;;
35290;SDS011;21411;50.024;19.220;2022-08-20T13:59:54;10.30;;;8.40;;
35290;SDS011;21411;50.024;19.220;2022-08-20T14:02:23;10.10;;;8.60;;
35290;SDS011;21411;50.024;19.220;2022-08-20T14:04:50;10.10;;;9.10;;
35290;SDS011;21411;50.024;19.220;2022-08-20T14:07:19;9.80;;;8.00;;
35290;SDS011;21411;50.024;19.220;2022-08-20T14:09:50;10.20;;;8.40;;
35290;SDS011;21411;50.024;19.220;2022-08-20T14:12:19;9.50;;;8.60;;
35290;SDS011;21411;50.024;19.220;2022-08-20T14:14:49;9.80;;;8.10;;
35290;SDS011;21411;50.024;19.220;2022-08-20T14:17:18;9.30;;;7.60;;
35290;SDS011;21411;50.024;19.220;2022-08-20T14:19:45;8.90;;;7.50;;
35290;SDS011;21411;50.024;19.220;2022-08-20T14:22:14;10.30;;;8.20;;
35290;SDS011;21411;50.024;19.220;2022-08-20T14:24:44;7.70;;;6.70;;
35290;SDS011;21411;50.024;19.220;2022-08-20T14:27:12;9.30;;;7.60;;
35290;SDS011;21411;50.024;19.220;2022-08-20T14:29:40;8.40;;;7.50;;
35290;SDS011;21411;50.024;19.220;2022-08-20T14:32:08;8.90;;;7.90;;
35290;SDS011;21411;50.024;19.220;2022-08-20T14:34:36;10.80;;;8.90;;
35290;SDS011;21411;50.024;19.220;2022-08-20T14:39:35;9.20;;;8.40;;
35290;SDS011;21411;50.024;19.220;2022-08-20T14:42:02;10.00;;;9.10;;
35290;SDS011;21411;50.024;19.220;2022-08-20T14:44:29;9.70;;;8.60;;
35290;SDS011;21411;50.024;19.220;2022-08-20T14:46:56;9.00;;;8.20;;
35290;SDS011;21411;50.024;19.220;2022-08-20T14:49:23;11.60;;;9.20;;
35290;SDS011;21411;50.024;19.220;2022-08-20T14:51:49;10.00;;;8.60;;
35290;SDS011;21411;50.024;19.220;2022-08-20T14:54:16;11.80;;;9.20;;
35290;SDS011;21411;50.024;19.220;2022-08-20T14:56:42;11.20;;;9.40;;
35290;SDS011;21411;50.024;19.220;2022-08-20T14:59:09;12.10;;;9.80;;
35290;SDS011;21411;50.024;19.220;2022-08-20T15:01:35;14.10;;;9.80;;
35290;SDS011;21411;50.024;19.220;2022-08-20T15:04:02;12.40;;;10.20;;
35290;SDS011;21411;50.024;19.220;2022-08-20T15:06:29;11.60;;;10.10;;
35290;SDS011;21411;50.024;19.220;2022-08-20T15:08:56;13.40;;;10.80;;
35290;SDS011;21411;50.024;19.220;2022-08-20T15:11:22;14.90;;;11.30;;
35290;SDS011;21411;50.024;19.220;2022-08-20T15:13:49;12.70;;;11.00;;
35290;SDS011;21411;50.024;19.220;2022-08-20T15:16:15;12.80;;;11.50;;
35290;SDS011;21411;50.024;19.220;2022-08-20T15:18:42;16.20;;;12.00;;
35290;SDS011;21411;50.024;19.220;2022-08-20T15:21:08;13.10;;;11.80;;
35290;SDS011;21411;50.024;19.220;2022-08-20T15:23:35;14.80;;;11.10;;
35290;SDS011;21411;50.024;19.220;2022-08-20T15:26:01;14.70;;;11.80;;
35290;SDS011;21411;50.024;19.220;2022-08-20T15:28:28;12.40;;;11.10;;
35290;SDS011;21411;50.024;19.220;2022-08-20T15:30:55;14.70;;;12.20;;
35290;SDS011;21411;50.024;19.220;2022-08-20T15:33:21;18.00;;;14.00;;
35290;SDS011;21411;50.024;19.220;2022-08-20T15:35:48;19.10;;;17.20;;
35290;SDS011;21411;50.024;19.220;2022-08-20T15:38:14;18.40;;;16.70;;
35290;SDS011;21411;50.024;19.220;2022-08-20T15:40:41;19.00;;;16.50;;
35290;SDS011;21411;50.024;19.220;2022-08-20T15:43:08;16.20;;;14.20;;
35290;SDS011;21411;50.024;19.220;2022-08-20T15:45:35;15.10;;;13.60;;
35290;SDS011;21411;50.024;19.220;2022-08-20T15:48:06;15.80;;;14.10;;
35290;SDS011;21411;50.024;19.220;2022-08-20T15:53:32;17.50;;;13.60;;
35290;SDS011;21411;50.024;19.220;2022-08-20T15:56:24;14.40;;;12.90;;
35290;SDS011;21411;50.024;19.220;2022-08-20T16:13:11;15.20;;;13.40;;
35290;SDS011;21411;50.024;19.220;2022-08-20T16:16:05;16.40;;;12.70;;
35290;SDS011;21411;50.024;19.220;2022-08-20T16:18:39;15.70;;;13.90;;
35290;SDS011;21411;50.024;19.220;2022-08-20T16:21:08;16.10;;;14.40;;
35290;SDS011;21411;50.024;19.220;2022-08-20T16:23:39;17.70;;;14.50;;
35290;SDS011;21411;50.024;19.220;2022-08-20T16:32:00;16.20;;;13.90;;
35290;SDS011;21411;50.024;19.220;2022-08-20T16:43:04;19.00;;;15.80;;
35290;SDS011;21411;50.024;19.220;2022-08-20T16:45:34;20.40;;;15.00;;
35290;SDS011;21411;50.024;19.220;2022-08-20T16:48:07;16.50;;;13.90;;
35290;SDS011;21411;50.024;19.220;2022-08-20T16:53:13;16.20;;;14.40;;
35290;SDS011;21411;50.024;19.220;2022-08-20T16:55:45;15.50;;;13.70;;
35290;SDS011;21411;50.024;19.220;2022-08-20T16:58:11;16.00;;;14.10;;
35290;SDS011;21411;50.024;19.220;2022-08-20T17:00:38;15.70;;;14.20;;
35290;SDS011;21411;50.024;19.220;2022-08-20T17:03:06;16.70;;;14.80;;
35290;SDS011;21411;50.024;19.220;2022-08-20T17:13:28;22.30;;;15.60;;
35290;SDS011;21411;50.024;19.220;2022-08-20T17:18:30;18.60;;;16.40;;
35290;SDS011;21411;50.024;19.220;2022-08-20T17:21:01;18.50;;;16.60;;
35290;SDS011;21411;50.024;19.220;2022-08-20T17:26:34;17.90;;;15.80;;
35290;SDS011;21411;50.024;19.220;2022-08-20T17:29:10;18.20;;;16.30;;
35290;SDS011;21411;50.024;19.220;2022-08-20T17:31:51;17.70;;;15.80;;
35290;SDS011;21411;50.024;19.220;2022-08-20T17:37:00;19.00;;;17.10;;
35290;SDS011;21411;50.024;19.220;2022-08-20T17:39:44;22.00;;;18.40;;
35290;SDS011;21411;50.024;19.220;2022-08-20T17:42:23;24.60;;;21.90;;
35290;SDS011;21411;50.024;19.220;2022-08-20T17:44:53;22.20;;;19.90;;
35290;SDS011;21411;50.024;19.220;2022-08-20T17:47:30;22.70;;;20.30;;
35290;SDS011;21411;50.024;19.220;2022-08-20T17:50:03;22.90;;;20.10;;
35290;SDS011;21411;50.024;19.220;2022-08-20T17:55:42;30.20;;;27.00;;
35290;SDS011;21411;50.024;19.220;2022-08-20T17:58:11;27.10;;;24.30;;
35290;SDS011;21411;50.024;19.220;2022-08-20T18:03:14;25.10;;;22.70;;
35290;SDS011;21411;50.024;19.220;2022-08-20T18:05:44;24.60;;;22.10;;
35290;SDS011;21411;50.024;19.220;2022-08-20T18:08:24;24.20;;;21.50;;
35290;SDS011;21411;50.024;19.220;2022-08-20T18:13:40;25.00;;;22.40;;
35290;SDS011;21411;50.024;19.220;2022-08-20T18:16:30;28.10;;;25.10;;
35290;SDS011;21411;50.024;19.220;2022-08-20T18:19:14;31.80;;;28.60;;
35290;SDS011;21411;50.024;19.220;2022-08-20T18:22:07;26.50;;;23.80;;
35290;SDS011;21411;50.024;19.220;2022-08-20T18:24:41;25.60;;;22.80;;
35290;SDS011;21411;50.024;19.220;2022-08-20T18:27:12;25.40;;;22.80;;
35290;SDS011;21411;50.024;19.220;2022-08-20T18:29:43;25.20;;;22.60;;
35290;SDS011;21411;50.024;19.220;2022-08-20T18:32:28;29.00;;;23.40;;
35290;SDS011;21411;50.024;19.220;2022-08-20T18:35:08;25.70;;;23.00;;
35290;SDS011;21411;50.024;19.220;2022-08-20T18:37:46;25.80;;;23.30;;
35290;SDS011;21411;50.024;19.220;2022-08-20T18:40:27;26.80;;;24.10;;
35290;SDS011;21411;50.024;19.220;2022-08-20T18:42:56;28.50;;;25.60;;
35290;SDS011;21411;50.024;19.220;2022-08-20T18:45:28;29.60;;;26.60;;
35290;SDS011;21411;50.024;19.220;2022-08-20T18:47:58;26.90;;;24.00;;
35290;SDS011;21411;50.024;19.220;2022-08-20T18:50:29;27.60;;;24.90;;
35290;SDS011;21411;50.024;19.220;2022-08-20T18:58:35;29.20;;;26.20;;
35290;SDS011;21411;50.024;19.220;2022-08-20T19:01:15;29.40;;;26.30;;
35290;SDS011;21411;50.024;19.220;2022-08-20T19:03:46;29.50;;;26.70;;
35290;SDS011;21411;50.024;19.220;2022-08-20T19:16:38;28.90;;;26.10;;
35290;SDS011;21411;50.024;19.220;2022-08-20T19:19:16;27.90;;;25.00;;
35290;SDS011;21411;50.024;19.220;2022-08-20T19:21:45;27.60;;;24.70;;
35290;SDS011;21411;50.024;19.220;2022-08-20T19:24:14;27.90;;;24.80;;
35290;SDS011;21411;50.024;19.220;2022-08-20T19:26:51;31.50;;;28.30;;
35290;SDS011;21411;50.024;19.220;2022-08-20T19:32:21;32.30;;;28.30;;
35290;SDS011;21411;50.024;19.220;2022-08-20T19:34:51;30.30;;;27.10;;
35290;SDS011;21411;50.024;19.220;2022-08-20T19:37:21;30.90;;;27.70;;
35290;SDS011;21411;50.024;19.220;2022-08-20T19:39:51;31.50;;;28.30;;
35290;SDS011;21411;50.024;19.220;2022-08-20T19:42:20;32.90;;;29.20;;
35290;SDS011;21411;50.024;19.220;2022-08-20T19:44:54;39.20;;;33.20;;
35290;SDS011;21411;50.024;19.220;2022-08-20T19:47:29;48.70;;;41.10;;
35290;SDS011;21411;50.024;19.220;2022-08-20T19:52:58;48.10;;;42.00;;
35290;SDS011;21411;50.024;19.220;2022-08-20T19:55:54;45.90;;;40.90;;
35290;SDS011;21411;50.024;19.220;2022-08-20T19:58:34;42.70;;;38.20;;
35290;SDS011;21411;50.024;19.220;2022-08-20T20:01:02;45.20;;;39.20;;
35290;SDS011;21411;50.024;19.220;2022-08-20T20:03:35;46.60;;;41.10;;
35290;SDS011;21411;50.024;19.220;2022-08-20T20:06:11;48.00;;;39.90;;
35290;SDS011;21411;50.024;19.220;2022-08-20T20:08:49;44.80;;;40.00;;
35290;SDS011;21411;50.024;19.220;2022-08-20T20:11:20;48.00;;;40.50;;
35290;SDS011;21411;50.024;19.220;2022-08-20T20:14:00;45.00;;;38.20;;
35290;SDS011;21411;50.024;19.220;2022-08-20T20:16:29;45.40;;;38.90;;
35290;SDS011;21411;50.024;19.220;2022-08-20T20:18:57;46.00;;;38.60;;
35290;SDS011;21411;50.024;19.220;2022-08-20T20:21:32;44.00;;;37.90;;
35290;SDS011;21411;50.024;19.220;2022-08-20T20:26:54;40.40;;;33.10;;
35290;SDS011;21411;50.024;19.220;2022-08-20T20:29:25;40.90;;;34.30;;
35290;SDS011;21411;50.024;19.220;2022-08-20T20:31:54;39.20;;;34.20;;
35290;SDS011;21411;50.024;19.220;2022-08-20T20:34:27;37.60;;;32.00;;